Terminal Aerodrome Forecast
Issued by NWS

Home | Current Version | Previous Version | Text Only | Print | Product List | Glossary On
Versions: 1 2 3 4 5 6 7 8 9 10 11 12 13 14 15 16 17 18 19 20 21 22 23 24 25 26 27 28
181
FTUS43 KPAH 250906 AAA
TAFOWB
TAF AMD
KOWB 250906Z 2509/2606 28010G15KT P6SM OVC011
      TEMPO 2509/2513 OVC008
     FM251600 28009G18KT P6SM BKN025
     FM260000 20003KT P6SM FEW250=

USA.gov is the U.S. government's official web portal to all federal, state and local government web resources and services.